createdAt,value
2022-11-30T00:00:37.561Z,96.45
2022-11-30T00:06:05.653Z,95.83
2022-11-30T00:11:29.968Z,95.90
2022-11-30T00:16:53.195Z,95.86
2022-11-30T00:22:14.746Z,95.45
2022-11-30T00:27:36.825Z,95.38
2022-11-30T00:33:00.685Z,95.39
2022-11-30T00:38:22.931Z,95.43
2022-11-30T00:43:45.128Z,95.23
2022-11-30T00:49:11.435Z,95.51
2022-11-30T00:54:33.130Z,95.40
2022-11-30T00:59:54.876Z,95.05
2022-11-30T01:05:18.301Z,94.92
2022-11-30T01:10:42.193Z,95.34
2022-11-30T01:16:10.403Z,95.54
2022-11-30T01:21:33.532Z,95.30
2022-11-30T01:26:55.085Z,95.32
2022-11-30T01:32:17.537Z,95.67
2022-11-30T01:37:42.214Z,95.75
2022-11-30T01:43:04.941Z,95.38
2022-11-30T01:48:26.489Z,95.31
2022-11-30T01:53:50.283Z,95.87
2022-11-30T01:59:13.021Z,95.68
2022-11-30T02:04:37.453Z,95.37
2022-11-30T02:10:01.543Z,95.77
2022-11-30T02:15:32.176Z,95.82
2022-11-30T02:21:06.132Z,96.29
2022-11-30T02:26:47.862Z,95.47
2022-11-30T02:32:16.252Z,95.33
2022-11-30T02:37:39.834Z,95.97
2022-11-30T02:43:04.804Z,95.82
2022-11-30T02:48:34.329Z,96.32
2022-11-30T02:53:57.433Z,96.42
2022-11-30T02:59:19.307Z,95.88
2022-11-30T03:04:43.333Z,96.31
2022-11-30T03:10:06.429Z,95.86
2022-11-30T03:15:28.889Z,96.36
2022-11-30T03:20:52.070Z,96.25
2022-11-30T03:26:14.008Z,96.24
2022-11-30T03:31:35.479Z,96.73
2022-11-30T03:36:58.604Z,96.14
2022-11-30T03:42:20.576Z,96.27
2022-11-30T03:47:42.418Z,96.83
2022-11-30T03:53:05.853Z,96.03
2022-11-30T03:58:27.889Z,96.34
2022-11-30T04:03:50.277Z,96.44
2022-11-30T04:09:13.876Z,97.08
2022-11-30T04:14:35.354Z,97.36
2022-11-30T04:19:56.794Z,96.82
2022-11-30T04:25:22.309Z,96.09
2022-11-30T04:30:44.762Z,96.80
2022-11-30T04:36:09.286Z,96.41
2022-11-30T04:41:32.109Z,96.45
2022-11-30T04:46:54.329Z,96.92
2022-11-30T04:52:15.916Z,96.47
2022-11-30T04:57:39.742Z,96.68
2022-11-30T05:03:04.390Z,96.44
2022-11-30T05:08:26.509Z,95.94
2022-11-30T05:13:49.680Z,96.28
2022-11-30T05:19:13.015Z,97.32
2022-11-30T05:24:34.836Z,96.86
2022-11-30T05:29:57.891Z,96.48
2022-11-30T05:35:19.751Z,96.31
2022-11-30T05:40:41.312Z,96.61
2022-11-30T05:46:06.840Z,97.00
2022-11-30T05:51:28.337Z,96.41
2022-11-30T05:56:54.461Z,96.50
2022-11-30T06:02:18.099Z,95.81
2022-11-30T06:07:40.427Z,95.65
2022-11-30T06:13:07.893Z,95.37
2022-11-30T06:18:31.185Z,96.24
2022-11-30T06:23:53.501Z,95.31
2022-11-30T06:29:15.482Z,95.84
2022-11-30T06:34:38.708Z,95.71
2022-11-30T06:40:07.977Z,95.67
2022-11-30T06:45:31.862Z,96.04
2022-11-30T06:50:54.740Z,95.50
2022-11-30T06:56:16.323Z,95.55
2022-11-30T07:01:38.221Z,95.83
2022-11-30T07:07:01.592Z,95.20
2022-11-30T07:12:23.033Z,94.63
2022-11-30T07:17:44.571Z,95.53
2022-11-30T07:23:21.777Z,95.62
2022-11-30T07:28:46.289Z,95.44
2022-11-30T07:34:10.057Z,95.54
2022-11-30T07:39:33.493Z,96.00
2022-11-30T07:44:58.808Z,96.06
2022-11-30T07:50:20.788Z,95.38
2022-11-30T07:55:44.549Z,96.21
2022-11-30T08:01:08.546Z,95.57
2022-11-30T08:06:32.725Z,96.57
2022-11-30T08:11:56.244Z,96.15
2022-11-30T08:17:17.979Z,95.61
2022-11-30T08:22:42.900Z,96.26
2022-11-30T08:28:06.705Z,95.69
2022-11-30T08:33:30.876Z,96.09
2022-11-30T08:38:52.747Z,95.51
2022-11-30T08:44:15.843Z,95.43
2022-11-30T08:49:37.653Z,95.84
2022-11-30T08:54:59.352Z,94.76
2022-11-30T09:00:22.943Z,94.48
2022-11-30T09:05:44.917Z,94.90
2022-11-30T09:11:11.193Z,93.86
2022-11-30T09:16:34.165Z,93.64
2022-11-30T09:21:55.967Z,93.95
2022-11-30T09:27:17.499Z,93.53
2022-11-30T09:32:40.556Z,93.13
2022-11-30T09:38:05.140Z,92.07
2022-11-30T09:43:36.707Z,92.75
2022-11-30T09:49:04.389Z,92.08
2022-11-30T09:54:35.638Z,91.23
2022-11-30T09:59:59.578Z,91.62
2022-11-30T10:05:28.276Z,90.70
2022-11-30T10:11:00.445Z,90.11
2022-11-30T10:16:33.311Z,90.55
2022-11-30T10:22:07.375Z,89.24
2022-11-30T10:27:42.164Z,89.48
2022-11-30T10:33:12.270Z,89.67
2022-11-30T10:38:40.672Z,89.17
2022-11-30T10:44:08.863Z,89.24
2022-11-30T10:49:33.122Z,88.89
2022-11-30T10:55:04.127Z,89.20
2022-11-30T11:00:26.900Z,89.02
2022-11-30T11:05:49.250Z,88.01
2022-11-30T11:11:36.701Z,87.13
2022-11-30T11:17:03.410Z,87.13
2022-11-30T11:22:27.711Z,87.06
2022-11-30T11:27:55.245Z,86.50
2022-11-30T11:33:22.959Z,85.55
2022-11-30T11:38:47.252Z,85.74
2022-11-30T11:44:22.488Z,85.17
2022-11-30T11:49:44.341Z,85.07
2022-11-30T11:55:11.408Z,84.83
2022-11-30T12:00:34.869Z,84.76
2022-11-30T12:06:01.744Z,84.84
2022-11-30T12:11:29.956Z,85.51
2022-11-30T12:17:14.786Z,85.18
2022-11-30T12:22:53.242Z,85.56
2022-11-30T12:28:26.381Z,85.87
2022-11-30T12:34:07.021Z,85.52
2022-11-30T12:39:38.991Z,84.93
2022-11-30T12:45:12.773Z,85.96
2022-11-30T12:51:01.631Z,85.36
2022-11-30T12:56:32.324Z,85.59
2022-11-30T13:02:11.920Z,85.63
2022-11-30T13:07:43.768Z,85.12
2022-11-30T13:13:07.572Z,84.97
2022-11-30T13:18:30.404Z,84.35
2022-11-30T13:23:58.644Z,84.47
2022-11-30T13:29:47.626Z,83.84
2022-11-30T13:35:44.574Z,83.86
2022-11-30T13:41:10.034Z,84.24
2022-11-30T13:46:31.851Z,83.77
2022-11-30T13:52:20.857Z,84.14
2022-11-30T13:58:08.871Z,83.84
2022-11-30T14:03:31.589Z,83.72
2022-11-30T14:08:53.457Z,83.64
2022-11-30T14:14:46.353Z,83.89
2022-11-30T14:20:17.948Z,84.08
2022-11-30T14:25:45.626Z,84.37
2022-11-30T14:31:12.267Z,84.05
2022-11-30T14:36:37.216Z,84.72
2022-11-30T14:42:02.174Z,85.03
2022-11-30T14:47:28.831Z,85.26
2022-11-30T14:53:01.843Z,85.01
2022-11-30T14:58:32.378Z,86.15
2022-11-30T15:03:58.497Z,85.91
2022-11-30T15:09:22.697Z,87.00
2022-11-30T15:15:03.243Z,86.48
2022-11-30T15:20:30.571Z,87.59
2022-11-30T15:25:59.084Z,87.81
2022-11-30T15:31:21.323Z,87.12
2022-11-30T15:36:44.838Z,87.75
2022-11-30T15:42:18.930Z,87.75
2022-11-30T15:47:40.604Z,88.61
2022-11-30T15:53:05.476Z,88.69
2022-11-30T15:58:30.809Z,88.84
2022-11-30T16:04:07.045Z,88.62
2022-11-30T16:09:33.391Z,88.68
2022-11-30T16:14:55.289Z,88.88
2022-11-30T16:20:18.081Z,89.31
2022-11-30T16:25:42.438Z,89.00
2022-11-30T16:31:04.108Z,89.24
2022-11-30T16:36:26.074Z,89.06
2022-11-30T16:41:49.592Z,88.79
2022-11-30T16:47:11.078Z,89.03
2022-11-30T16:52:34.382Z,89.28
2022-11-30T16:57:57.505Z,89.69
2022-11-30T17:03:23.007Z,90.13
2022-11-30T17:08:44.701Z,89.95
2022-11-30T17:14:08.129Z,89.74
2022-11-30T17:19:30.196Z,90.89
2022-11-30T17:24:52.120Z,91.39
2022-11-30T17:30:17.754Z,91.24
2022-11-30T17:35:40.107Z,91.44
2022-11-30T17:41:02.406Z,92.00
2022-11-30T17:46:25.873Z,92.20
2022-11-30T17:51:47.837Z,93.00
2022-11-30T17:57:10.425Z,93.98
2022-11-30T18:02:33.590Z,94.67
2022-11-30T18:07:55.671Z,96.16
2022-11-30T18:13:19.555Z,96.49
2022-11-30T18:18:47.797Z,97.00
2022-11-30T18:24:13.648Z,97.80
2022-11-30T18:29:35.574Z,98.16
2022-11-30T18:34:58.755Z,98.98
2022-11-30T18:40:20.780Z,99.48
2022-11-30T18:45:42.680Z,99.75
2022-11-30T18:51:12.685Z,100.00
2022-11-30T18:56:36.342Z,100.00
2022-11-30T19:01:59.502Z,100.00
2022-11-30T19:07:22.988Z,100.00
2022-11-30T19:12:46.832Z,100.00
2022-11-30T19:18:09.195Z,100.00
2022-11-30T19:23:32.303Z,100.00
2022-11-30T19:28:55.454Z,100.00
2022-11-30T19:34:16.934Z,100.00
2022-11-30T19:39:39.952Z,100.00
2022-11-30T19:45:01.823Z,100.00
2022-11-30T19:50:24.680Z,100.00
2022-11-30T19:55:48.211Z,100.00
2022-11-30T20:01:13.433Z,100.00
2022-11-30T20:06:37.199Z,100.00
2022-11-30T20:12:00.277Z,100.00
2022-11-30T20:17:21.850Z,100.00
2022-11-30T20:22:43.879Z,100.00
2022-11-30T20:28:12.278Z,100.00
2022-11-30T20:33:35.487Z,100.00
2022-11-30T20:38:57.127Z,100.00
2022-11-30T20:44:20.207Z,100.00
2022-11-30T20:49:42.046Z,100.00
2022-11-30T20:55:04.142Z,100.00
2022-11-30T21:00:27.388Z,100.00
2022-11-30T21:06:00.846Z,100.00
2022-11-30T21:11:31.552Z,100.00
2022-11-30T21:17:21.872Z,100.00
2022-11-30T21:22:44.015Z,100.00
2022-11-30T21:28:05.930Z,100.00
2022-11-30T21:33:29.238Z,100.00
2022-11-30T21:38:59.546Z,100.00
2022-11-30T21:44:24.849Z,100.00
2022-11-30T21:49:48.464Z,100.00
2022-11-30T21:55:11.178Z,100.00
2022-11-30T22:00:32.745Z,100.00
2022-11-30T22:06:03.133Z,100.00
2022-11-30T22:11:24.959Z,100.00
2022-11-30T22:16:47.023Z,100.00
2022-11-30T22:22:10.315Z,100.00
2022-11-30T22:27:33.084Z,100.00
2022-11-30T22:32:54.764Z,100.00
2022-11-30T22:38:17.749Z,100.00
2022-11-30T22:43:39.425Z,100.00
2022-11-30T22:49:01.877Z,100.00
2022-11-30T22:54:24.770Z,100.00
2022-11-30T22:59:46.933Z,100.00
2022-11-30T23:05:09.109Z,100.00
2022-11-30T23:10:32.193Z,100.00
2022-11-30T23:15:54.291Z,100.00
2022-11-30T23:21:18.684Z,100.00
2022-11-30T23:26:43.111Z,100.00
2022-11-30T23:32:05.219Z,100.00
2022-11-30T23:37:27.114Z,100.00
2022-11-30T23:42:53.548Z,100.00
2022-11-30T23:48:15.205Z,100.00
2022-11-30T23:53:36.827Z,100.00
2022-11-30T23:59:00.047Z,100.00
